createdAt,value
2022-11-14T00:02:12.179Z,70.33
2022-11-14T00:06:42.554Z,70.54
2022-11-14T00:11:12.847Z,70.61
2022-11-14T00:15:44.020Z,71.21
2022-11-14T00:20:14.584Z,71.52
2022-11-14T00:24:45.008Z,72.21
2022-11-14T00:29:16.006Z,72.15
2022-11-14T00:33:46.108Z,73.01
2022-11-14T00:38:16.454Z,73.19
2022-11-14T00:42:47.745Z,72.89
2022-11-14T00:47:18.170Z,72.93
2022-11-14T00:51:48.403Z,73.90
2022-11-14T00:56:19.087Z,74.06
2022-11-14T01:00:49.376Z,74.10
2022-11-14T01:05:19.737Z,73.69
2022-11-14T01:09:50.268Z,74.46
2022-11-14T01:14:20.670Z,74.75
2022-11-14T01:18:50.973Z,74.35
2022-11-14T01:23:21.291Z,74.86
2022-11-14T01:27:51.724Z,75.35
2022-11-14T01:32:22.215Z,75.81
2022-11-14T01:36:52.767Z,75.50
2022-11-14T01:41:23.350Z,75.61
2022-11-14T01:46:05.361Z,76.12
2022-11-14T01:50:35.676Z,76.13
2022-11-14T01:55:09.225Z,76.42
2022-11-14T01:59:53.774Z,76.18
2022-11-14T02:04:33.191Z,77.05
2022-11-14T02:09:06.152Z,76.50
2022-11-14T02:13:36.119Z,77.11
2022-11-14T02:18:06.856Z,77.04
2022-11-14T02:22:39.395Z,77.50
2022-11-14T02:27:11.656Z,77.88
2022-11-14T02:31:41.814Z,77.58
2022-11-14T02:36:11.847Z,77.63
2022-11-14T02:40:42.136Z,78.19
2022-11-14T02:45:13.313Z,77.81
2022-11-14T02:49:43.336Z,78.12
2022-11-14T02:54:13.589Z,77.94
2022-11-14T02:58:44.038Z,78.71
2022-11-14T03:03:14.363Z,78.70
2022-11-14T03:07:44.731Z,78.70
2022-11-14T03:12:19.260Z,78.90
2022-11-14T03:16:49.590Z,78.58
2022-11-14T03:21:21.433Z,79.10
2022-11-14T03:25:52.012Z,79.02
2022-11-14T03:30:22.223Z,79.33
2022-11-14T03:34:52.544Z,78.96
2022-11-14T03:39:22.838Z,79.19
2022-11-14T03:43:53.072Z,79.21
2022-11-14T03:48:23.114Z,79.08
2022-11-14T03:52:53.497Z,79.39
2022-11-14T03:57:23.808Z,79.23
2022-11-14T04:01:53.997Z,79.53
2022-11-14T04:06:24.628Z,79.77
2022-11-14T04:10:55.063Z,79.32
2022-11-14T04:15:25.334Z,79.57
2022-11-14T04:19:55.745Z,79.98
2022-11-14T04:24:26.061Z,79.25
2022-11-14T04:28:56.353Z,79.46
2022-11-14T04:33:27.011Z,79.31
2022-11-14T04:37:57.072Z,79.22
2022-11-14T04:42:27.151Z,79.30
2022-11-14T04:46:57.441Z,79.97
2022-11-14T04:51:27.615Z,80.15
2022-11-14T04:55:57.581Z,80.10
2022-11-14T05:00:27.484Z,79.94
2022-11-14T05:04:57.539Z,79.71
2022-11-14T05:09:27.528Z,79.50
2022-11-14T05:13:57.577Z,79.61
2022-11-14T05:18:27.843Z,79.77
2022-11-14T05:22:58.480Z,80.34
2022-11-14T05:27:29.532Z,80.19
2022-11-14T05:32:00.690Z,80.09
2022-11-14T05:36:30.767Z,80.33
2022-11-14T05:41:05.436Z,80.19
2022-11-14T05:45:35.553Z,80.24
2022-11-14T05:50:06.185Z,80.41
2022-11-14T05:54:36.156Z,80.27
2022-11-14T05:59:06.199Z,80.49
2022-11-14T06:03:44.975Z,80.75
2022-11-14T06:08:15.249Z,81.04
2022-11-14T06:12:45.535Z,80.79
2022-11-14T06:17:15.281Z,81.20
2022-11-14T06:21:45.221Z,81.43
2022-11-14T06:26:32.503Z,81.15
2022-11-14T06:31:04.481Z,81.43
2022-11-14T06:35:35.357Z,81.02
2022-11-14T06:40:05.926Z,81.83
2022-11-14T06:44:36.268Z,82.01
2022-11-14T06:49:06.597Z,81.44
2022-11-14T06:53:37.449Z,81.79
2022-11-14T06:58:07.430Z,82.01
2022-11-14T07:02:37.256Z,82.00
2022-11-14T07:07:07.392Z,81.37
2022-11-14T07:11:37.739Z,82.05
2022-11-14T07:16:07.804Z,81.92
2022-11-14T07:20:37.888Z,81.99
2022-11-14T07:25:08.199Z,81.53
2022-11-14T07:29:38.083Z,81.73
2022-11-14T07:34:09.015Z,81.74
2022-11-14T07:38:40.028Z,81.53
2022-11-14T07:43:10.241Z,81.39
2022-11-14T07:47:40.455Z,81.22
2022-11-14T07:52:10.851Z,81.18
2022-11-14T07:56:40.863Z,80.93
2022-11-14T08:01:12.736Z,80.62
2022-11-14T08:05:43.099Z,80.82
2022-11-14T08:10:14.085Z,80.79
2022-11-14T08:14:44.250Z,80.50
2022-11-14T08:19:16.605Z,80.42
2022-11-14T08:23:46.789Z,80.61
2022-11-14T08:28:16.545Z,80.92
2022-11-14T08:32:46.463Z,79.81
2022-11-14T08:37:16.507Z,77.17
2022-11-14T08:41:46.424Z,73.47
2022-11-14T08:46:16.316Z,72.72
2022-11-14T08:50:46.328Z,69.05
2022-11-14T08:55:16.728Z,64.79
2022-11-14T08:59:46.965Z,63.66
2022-11-14T09:04:17.513Z,61.60
2022-11-14T09:08:48.016Z,59.68
2022-11-14T09:13:18.318Z,58.95
2022-11-14T09:17:48.704Z,57.49
2022-11-14T09:22:19.273Z,56.10
2022-11-14T09:26:56.405Z,55.79
2022-11-14T09:31:27.226Z,54.05
2022-11-14T09:36:02.864Z,53.33
2022-11-14T09:41:08.268Z,52.48
2022-11-14T09:45:44.442Z,51.11
2022-11-14T09:50:24.408Z,50.97
2022-11-14T09:54:59.426Z,49.83
2022-11-14T09:59:29.592Z,49.77
2022-11-14T10:04:14.647Z,50.42
2022-11-14T10:08:53.931Z,50.90
2022-11-14T10:13:38.495Z,51.64
2022-11-14T10:18:27.811Z,52.99
2022-11-14T10:23:13.403Z,54.07
2022-11-14T10:27:56.575Z,54.46
2022-11-14T10:32:50.251Z,54.86
2022-11-14T10:37:27.907Z,54.80
2022-11-14T10:42:08.864Z,55.46
2022-11-14T10:46:49.958Z,56.21
2022-11-14T10:51:41.280Z,55.89
2022-11-14T10:56:12.848Z,56.31
2022-11-14T11:00:43.388Z,56.97
2022-11-14T11:05:20.113Z,57.86
2022-11-14T11:10:18.244Z,58.09
2022-11-14T11:15:08.064Z,58.60
2022-11-14T11:19:42.341Z,58.79
2022-11-14T11:24:12.778Z,58.79
2022-11-14T11:28:42.889Z,58.68
2022-11-14T11:33:38.135Z,58.89
2022-11-14T11:38:14.661Z,59.82
2022-11-14T11:48:22.422Z,62.13
2022-11-14T11:53:20.268Z,62.93
2022-11-14T11:58:11.994Z,63.84
2022-11-14T12:02:49.795Z,64.24
2022-11-14T12:07:25.761Z,64.47
2022-11-14T12:12:03.429Z,65.03
2022-11-14T12:16:55.486Z,65.63
2022-11-14T12:21:58.812Z,66.25
2022-11-14T12:26:59.053Z,66.84
2022-11-14T12:31:34.405Z,66.91
2022-11-14T12:36:13.672Z,66.70
2022-11-14T12:40:56.838Z,66.96
2022-11-14T12:45:36.277Z,66.93
2022-11-14T12:50:31.441Z,67.31
2022-11-14T12:55:01.532Z,67.03
2022-11-14T13:00:06.270Z,66.96
2022-11-14T13:04:42.797Z,67.35
2022-11-14T13:09:34.278Z,67.26
2022-11-14T13:14:26.938Z,67.13
2022-11-14T13:19:20.495Z,67.21
2022-11-14T13:23:50.801Z,67.38
2022-11-14T13:28:36.214Z,67.50
2022-11-14T13:33:06.382Z,67.42
2022-11-14T13:38:18.075Z,67.26
2022-11-14T13:43:20.712Z,67.94
2022-11-14T13:48:15.785Z,68.23
2022-11-14T13:52:48.445Z,68.11
2022-11-14T13:57:34.085Z,68.56
2022-11-14T14:02:04.205Z,68.83
2022-11-14T14:06:52.982Z,68.94
2022-11-14T14:11:40.168Z,69.15
2022-11-14T14:16:50.575Z,69.35
2022-11-14T14:21:35.771Z,69.33
2022-11-14T14:26:23.439Z,69.03
2022-11-14T14:31:16.918Z,69.83
2022-11-14T14:35:52.866Z,70.01
2022-11-14T14:40:29.492Z,69.89
2022-11-14T14:45:00.164Z,69.88
2022-11-14T14:49:37.744Z,70.36
2022-11-14T14:54:19.900Z,70.62
2022-11-14T14:58:49.977Z,70.70
2022-11-14T15:03:21.366Z,70.49
2022-11-14T15:07:56.075Z,70.45
2022-11-14T15:12:29.231Z,70.66
2022-11-14T15:17:00.433Z,70.59
2022-11-14T15:21:30.905Z,70.48
2022-11-14T15:26:03.171Z,70.46
2022-11-14T15:30:37.109Z,70.52
2022-11-14T15:35:29.210Z,70.71
2022-11-14T15:40:22.512Z,70.88
2022-11-14T15:44:52.806Z,71.30
2022-11-14T15:49:26.327Z,71.61
2022-11-14T15:53:56.456Z,71.36
2022-11-14T15:58:28.639Z,71.62
2022-11-14T16:02:59.420Z,72.13
2022-11-14T16:07:30.100Z,72.39
2022-11-14T16:12:00.453Z,72.23
2022-11-14T16:16:30.693Z,72.29
2022-11-14T16:21:01.158Z,72.78
2022-11-14T16:25:32.129Z,72.92
2022-11-14T16:30:02.309Z,72.73
2022-11-14T16:34:32.588Z,72.96
2022-11-14T16:39:04.041Z,72.78
2022-11-14T16:43:34.403Z,73.34
2022-11-14T16:48:05.036Z,73.48
2022-11-14T16:52:35.286Z,73.42
2022-11-14T16:57:05.562Z,73.69
2022-11-14T17:01:35.982Z,73.35
2022-11-14T17:06:09.121Z,73.54
2022-11-14T17:10:46.733Z,73.38
2022-11-14T17:15:17.154Z,73.24
2022-11-14T17:19:47.550Z,73.39
2022-11-14T17:24:17.995Z,73.13
2022-11-14T17:28:48.386Z,73.47
2022-11-14T17:33:18.654Z,73.04
2022-11-14T17:37:48.913Z,73.33
2022-11-14T17:42:19.221Z,74.68
2022-11-14T17:46:49.606Z,74.23
2022-11-14T17:51:19.849Z,74.35
2022-11-14T17:55:59.920Z,75.43
2022-11-14T18:00:30.293Z,75.25
2022-11-14T18:05:00.536Z,75.09
2022-11-14T18:09:30.900Z,75.88
2022-11-14T18:14:01.228Z,75.57
2022-11-14T18:18:33.540Z,75.85
2022-11-14T18:23:03.519Z,75.84
2022-11-14T18:27:34.025Z,75.70
2022-11-14T18:32:04.415Z,75.97
2022-11-14T18:36:34.391Z,76.39
2022-11-14T18:41:09.638Z,76.16
2022-11-14T18:45:39.565Z,75.87
2022-11-14T18:50:09.619Z,76.21
2022-11-14T18:54:40.163Z,76.24
2022-11-14T18:59:10.450Z,76.57
2022-11-14T19:03:40.724Z,76.27
2022-11-14T19:08:11.164Z,76.54
2022-11-14T19:12:42.639Z,76.32
2022-11-14T19:17:14.048Z,76.06
2022-11-14T19:21:44.026Z,76.31
2022-11-14T19:26:14.287Z,76.13
2022-11-14T19:30:44.081Z,76.27
2022-11-14T19:35:19.837Z,76.40
2022-11-14T19:39:55.142Z,76.46
2022-11-14T19:44:25.158Z,76.82
2022-11-14T19:48:59.544Z,76.60
2022-11-14T19:53:30.945Z,76.75
2022-11-14T19:58:01.090Z,77.02
2022-11-14T20:02:31.377Z,78.13
2022-11-14T20:07:01.617Z,78.46
2022-11-14T20:11:31.766Z,78.77
2022-11-14T20:16:18.120Z,78.79
2022-11-14T20:20:48.508Z,78.87
2022-11-14T20:25:18.409Z,78.88
2022-11-14T20:29:48.340Z,79.06
2022-11-14T20:34:18.246Z,78.89
2022-11-14T20:38:48.804Z,78.65
2022-11-14T20:43:18.778Z,79.03
2022-11-14T20:47:48.645Z,78.52
2022-11-14T20:52:18.716Z,79.16
2022-11-14T20:56:48.662Z,79.09
2022-11-14T21:01:19.158Z,78.98
2022-11-14T21:05:49.710Z,79.59
2022-11-14T21:10:38.072Z,80.13
2022-11-14T21:15:08.938Z,80.35
2022-11-14T21:19:38.982Z,80.94
2022-11-14T21:24:14.495Z,81.01
2022-11-14T21:28:47.435Z,80.76
2022-11-14T21:33:17.538Z,80.80
2022-11-14T21:37:47.421Z,80.54
2022-11-14T21:42:18.749Z,80.90
2022-11-14T21:46:49.665Z,80.73
2022-11-14T21:51:22.709Z,80.69
2022-11-14T21:55:52.615Z,80.59
2022-11-14T22:00:22.752Z,80.12
2022-11-14T22:04:52.568Z,80.79
2022-11-14T22:09:22.829Z,80.37
2022-11-14T22:13:52.935Z,80.31
2022-11-14T22:18:22.907Z,80.85
2022-11-14T22:22:56.052Z,80.77
2022-11-14T22:27:26.456Z,80.68
2022-11-14T22:31:56.823Z,80.44
2022-11-14T22:36:27.635Z,80.78
2022-11-14T22:40:58.845Z,80.13
2022-11-14T22:45:28.995Z,80.12
2022-11-14T22:49:58.967Z,80.00
2022-11-14T22:54:29.200Z,80.52
2022-11-14T22:59:00.112Z,80.85
2022-11-14T23:03:30.220Z,80.88
2022-11-14T23:07:59.938Z,81.47
2022-11-14T23:12:30.047Z,81.41
2022-11-14T23:17:00.243Z,81.58
2022-11-14T23:21:33.254Z,81.55
2022-11-14T23:26:05.428Z,81.94
2022-11-14T23:30:36.081Z,82.43
2022-11-14T23:35:07.024Z,82.66
2022-11-14T23:39:37.395Z,82.72
2022-11-14T23:44:07.457Z,83.19
2022-11-14T23:48:37.379Z,82.51
2022-11-14T23:53:07.627Z,83.14
2022-11-14T23:57:37.704Z,83.55
